Time;durP1;ratioP1;P1;durP2;ratioP2;P2;SDS_P1;SDS_P2;PMS_P1;PMS_P2;Temp;Humidity;BMP_temperature;BMP_pressure;BME280_temperature;BME280_humidity;BME280_pressure;Samples;Min_cycle;Max_cycle;Signal;HPM_P1;HPM_P2
2023/12/03 00:01:45;;;;;;;13.80;8.80;;;;;;;-0.10;61.34;101511.97;5007082;28;97083;-73
2023/12/03 00:04:10;;;;;;;13.00;8.37;;;;;;;-0.07;61.34;101515.81;5007113;28;98224;-72
2023/12/03 00:06:36;;;;;;;16.10;8.83;;;;;;;-0.06;61.40;101507.22;5004983;28;99963;-72
2023/12/03 00:09:01;;;;;;;15.93;9.33;;;;;;;-0.04;61.55;101515.72;5005868;28;97419;-72
2023/12/03 00:11:26;;;;;;;15.77;9.93;;;;;;;-0.04;61.37;101504.84;5007137;28;97336;-73
2023/12/03 00:13:54;;;;;;;17.70;9.37;;;;;;;-0.02;61.43;101515.28;5005739;28;97055;-72
2023/12/03 00:16:19;;;;;;;16.43;9.40;;;;;;;-0.02;61.21;101509.84;5006728;28;97099;-72
2023/12/03 00:18:44;;;;;;;19.47;9.60;;;;;;;-0.02;61.41;101518.00;5006092;28;103695;-72
2023/12/03 00:21:10;;;;;;;19.53;9.80;;;;;;;-0.00;61.32;101512.91;5005613;28;97225;-73
2023/12/03 00:23:35;;;;;;;16.87;9.53;;;;;;;-0.03;61.41;101528.13;5004940;28;96857;-73
2023/12/03 00:26:00;;;;;;;17.90;8.50;;;;;;;-0.05;61.33;101510.72;5005494;28;98471;-73
2023/12/03 00:28:26;;;;;;;17.57;9.03;;;;;;;-0.06;61.43;101514.63;5006084;28;100188;-72
2023/12/03 00:30:51;;;;;;;17.40;9.77;;;;;;;-0.05;61.52;101518.88;5004970;28;96903;-72
2023/12/03 00:33:16;;;;;;;16.90;9.60;;;;;;;-0.05;61.52;101518.88;5005602;28;97852;-73
2023/12/03 00:35:42;;;;;;;17.83;9.90;;;;;;;-0.02;61.58;101518.78;5005159;27;98032;-72
2023/12/03 00:38:07;;;;;;;19.60;9.47;;;;;;;-0.00;61.42;101523.78;5005113;28;98209;-73
2023/12/03 00:40:32;;;;;;;17.30;9.40;;;;;;;-0.00;61.64;101518.34;5008608;28;97402;-72
2023/12/03 00:42:58;;;;;;;16.63;9.00;;;;;;;-0.02;61.44;101518.00;5007722;28;97443;-72
2023/12/03 00:45:23;;;;;;;16.70;9.40;;;;;;;-0.05;61.39;101519.63;5006476;28;97276;-72
2023/12/03 00:47:48;;;;;;;18.50;9.90;;;;;;;-0.05;61.33;101521.59;5003616;28;100140;-73
2023/12/03 00:50:14;;;;;;;18.67;9.63;;;;;;;-0.07;61.49;101515.81;5005241;28;97170;-72
2023/12/03 00:52:39;;;;;;;17.43;8.53;;;;;;;-0.06;61.62;101518.09;5006726;28;97817;-72
2023/12/03 00:55:04;;;;;;;18.03;9.40;;;;;;;-0.06;61.60;101523.53;5006485;28;98042;-72
2023/12/03 00:57:30;;;;;;;17.60;9.10;;;;;;;-0.08;61.56;101517.75;5005801;28;97110;-72
2023/12/03 00:59:56;;;;;;;19.60;9.47;;;;;;;-0.07;61.40;101526.69;5006599;28;97040;-72
2023/12/03 01:02:21;;;;;;;16.50;9.00;;;;;;;-0.07;61.65;101515.81;5006032;28;97091;-73
2023/12/03 01:04:47;;;;;;;18.77;9.87;;;;;;;-0.05;61.66;101521.59;5006824;28;97755;-73
2023/12/03 01:07:12;;;;;;;16.27;8.20;;;;;;;-0.04;61.64;101529.31;5007217;28;98247;-72
2023/12/03 01:09:37;;;;;;;14.70;8.50;;;;;;;-0.02;61.82;101526.94;5006001;28;97024;-72
2023/12/03 01:12:03;;;;;;;15.93;7.93;;;;;;;-0.01;61.83;101528.50;5006372;28;97213;-73
2023/12/03 01:14:29;;;;;;;21.03;9.10;;;;;;;0.00;61.61;101530.00;5005866;28;97476;-73
2023/12/03 01:16:54;;;;;;;18.87;9.80;;;;;;;0.02;61.79;101543.19;5007368;28;98441;-72
2023/12/03 01:19:19;;;;;;;20.50;10.20;;;;;;;0.05;61.66;101536.91;5006263;28;97174;-72
2023/12/03 01:21:45;;;;;;;17.50;9.17;;;;;;;0.05;61.81;101550.50;5006145;28;97122;-72
2023/12/03 01:24:10;;;;;;;15.67;8.87;;;;;;;0.07;61.79;101553.56;5006142;27;97269;-73
2023/12/03 01:26:35;;;;;;;16.37;8.57;;;;;;;0.08;61.82;101544.22;5006641;28;103061;-73
2023/12/03 01:29:01;;;;;;;17.50;9.40;;;;;;;0.10;61.75;101552.75;5006005;28;97598;-72
2023/12/03 01:31:26;;;;;;;18.77;9.27;;;;;;;0.10;61.77;101550.03;5006276;28;97140;-73
2023/12/03 01:33:51;;;;;;;18.47;9.60;;;;;;;0.10;61.95;101558.19;5005649;28;97807;-73
2023/12/03 01:36:17;;;;;;;18.87;10.00;;;;;;;0.11;61.78;101554.25;5004834;28;98987;-72
2023/12/03 01:38:42;;;;;;;20.57;9.73;;;;;;;0.11;61.81;101562.41;5006357;28;96989;-73
2023/12/03 01:41:07;;;;;;;18.53;10.07;;;;;;;0.12;61.89;101561.25;5006747;28;97406;-73
2023/12/03 01:43:32;;;;;;;23.00;10.17;;;;;;;0.11;61.74;101559.69;5005473;28;109444;-73
2023/12/03 01:45:58;;;;;;;21.20;9.77;;;;;;;0.12;61.79;101563.97;5004255;28;98824;-73
2023/12/03 01:48:25;;;;;;;20.50;9.90;;;;;;;0.13;61.83;101560.81;5005473;28;97621;-74
2023/12/03 01:50:51;;;;;;;19.63;9.80;;;;;;;0.13;61.95;101560.03;5007878;28;99688;-73
2023/12/03 01:53:18;;;;;;;19.77;10.37;;;;;;;0.13;61.97;101557.31;5006876;28;97504;-73
2023/12/03 01:55:43;;;;;;;17.87;9.37;;;;;;;0.12;61.91;101561.25;5009019;28;97238;-73
2023/12/03 01:58:09;;;;;;;18.83;9.43;;;;;;;0.13;61.94;101560.03;5005437;28;96908;-73
2023/12/03 02:00:34;;;;;;;17.57;9.17;;;;;;;0.13;62.08;101570.91;5010154;28;97275;-73
2023/12/03 02:03:00;;;;;;;20.67;10.70;;;;;;;0.15;61.98;101563.09;5011278;28;100243;-72
2023/12/03 02:05:25;;;;;;;20.40;10.43;;;;;;;0.14;61.87;101558.88;5004661;28;98394;-73
2023/12/03 02:07:50;;;;;;;18.20;10.23;;;;;;;0.14;61.80;101564.31;5004877;28;96693;-73
2023/12/03 02:10:15;;;;;;;20.30;10.10;;;;;;;0.12;61.90;101563.97;5005303;28;97217;-73
2023/12/03 02:12:41;;;;;;;22.23;11.13;;;;;;;0.11;61.96;101563.19;5004567;28;100103;-73
2023/12/03 02:15:07;;;;;;;19.53;9.60;;;;;;;0.11;61.85;101570.56;5005776;28;98236;-73
2023/12/03 02:17:32;;;;;;;21.80;10.77;;;;;;;0.10;61.98;101569.06;5005023;28;97099;-73
2023/12/03 02:19:57;;;;;;;19.53;10.23;;;;;;;0.11;61.97;101570.56;5006163;28;96940;-73
2023/12/03 02:22:23;;;;;;;21.87;12.30;;;;;;;0.07;61.94;101569.91;5004170;28;96989;-72
2023/12/03 02:24:48;;;;;;;21.63;10.47;;;;;;;0.08;61.96;101571.44;5002157;28;97709;-72
2023/12/03 02:27:13;;;;;;;21.60;9.93;;;;;;;0.07;61.95;101575.34;5003487;28;97579;-72
2023/12/03 02:29:39;;;;;;;21.13;10.23;;;;;;;0.08;62.02;101576.88;5005983;28;97213;-73
2023/12/03 02:32:04;;;;;;;18.00;9.67;;;;;;;0.06;62.09;101569.13;5006407;28;99980;-72
2023/12/03 02:34:29;;;;;;;20.50;10.30;;;;;;;0.06;61.86;101576.53;5005105;28;97645;-73
2023/12/03 02:36:55;;;;;;;20.97;11.20;;;;;;;0.06;62.00;101580.00;5005647;28;99646;-73
2023/12/03 02:39:20;;;;;;;23.73;11.60;;;;;;;0.07;62.06;101581.56;5005660;28;97267;-73
2023/12/03 02:41:45;;;;;;;20.10;10.37;;;;;;;0.11;62.02;101589.63;5003407;28;101118;-72
2023/12/03 02:44:11;;;;;;;18.20;9.87;;;;;;;0.09;61.87;101584.63;5004403;28;97982;-73
2023/12/03 02:46:36;;;;;;;16.70;9.80;;;;;;;0.10;62.15;101577.97;5006190;28;97035;-72
2023/12/03 02:49:01;;;;;;;20.70;10.57;;;;;;;0.13;62.07;101587.25;5006093;28;97162;-72
2023/12/03 02:51:27;;;;;;;20.60;10.70;;;;;;;0.13;62.08;101592.69;5004561;28;98409;-73
2023/12/03 02:53:52;;;;;;;17.53;10.20;;;;;;;0.13;62.27;101577.13;5005904;28;97884;-73
2023/12/03 02:56:17;;;;;;;21.83;11.03;;;;;;;0.14;62.10;101578.69;5003062;28;99739;-73
2023/12/03 02:58:43;;;;;;;17.17;10.00;;;;;;;0.15;61.97;101584.88;5005289;28;97341;-73
2023/12/03 03:01:08;;;;;;;20.00;10.90;;;;;;;0.14;61.96;101577.91;5006096;28;97087;-73
2023/12/03 03:03:34;;;;;;;22.37;10.60;;;;;;;0.15;62.08;101582.16;5004532;27;97510;-73
2023/12/03 03:05:59;;;;;;;18.20;10.30;;;;;;;0.18;62.23;101584.03;5003862;28;97515;-73
2023/12/03 03:08:25;;;;;;;21.40;10.60;;;;;;;0.15;62.28;101585.63;5006426;28;97474;-73
2023/12/03 03:10:50;;;;;;;18.60;9.70;;;;;;;0.16;62.17;101580.97;5005046;28;97074;-73
2023/12/03 03:13:16;;;;;;;22.30;12.23;;;;;;;0.16;62.26;101589.13;5005731;28;97808;-73
2023/12/03 03:15:41;;;;;;;21.30;10.70;;;;;;;0.12;62.13;101589.22;5004433;28;96938;-72
2023/12/03 03:18:07;;;;;;;23.40;10.70;;;;;;;0.12;62.45;101591.16;5004534;28;97104;-72
2023/12/03 03:20:33;;;;;;;20.00;10.40;;;;;;;0.16;61.96;101586.41;5003745;28;97276;-73
2023/12/03 03:22:58;;;;;;;23.00;11.40;;;;;;;0.16;62.21;101589.13;5004858;28;97443;-73
2023/12/03 03:25:23;;;;;;;23.93;11.73;;;;;;;0.17;62.27;101599.59;5003763;28;97009;-73
2023/12/03 03:27:49;;;;;;;21.17;10.60;;;;;;;0.16;62.19;101597.31;5004177;28;97108;-73
2023/12/03 03:30:14;;;;;;;21.30;10.70;;;;;;;0.17;62.11;101594.16;5003022;28;97782;-73
2023/12/03 03:32:39;;;;;;;23.77;10.67;;;;;;;0.20;62.10;101589.81;5003558;28;97308;-73
2023/12/03 03:35:05;;;;;;;20.50;10.37;;;;;;;0.19;62.33;101585.59;5004001;28;97266;-73
2023/12/03 03:37:31;;;;;;;23.67;11.37;;;;;;;0.17;62.35;101591.44;5002403;28;97105;-73
2023/12/03 03:39:56;;;;;;;20.63;10.63;;;;;;;0.19;62.40;101593.75;5002981;28;99129;-73
2023/12/03 03:42:22;;;;;;;24.70;11.57;;;;;;;0.19;62.32;101597.22;5004349;28;97799;-73
2023/12/03 03:44:47;;;;;;;21.47;11.17;;;;;;;0.19;62.26;101589.03;5003349;28;96912;-73
2023/12/03 03:47:13;;;;;;;20.80;11.03;;;;;;;0.19;62.33;101604.63;5003726;28;96801;-73
2023/12/03 03:49:39;;;;;;;20.53;10.70;;;;;;;0.19;62.29;101593.75;5003067;28;97380;-73
2023/12/03 03:52:05;;;;;;;18.60;10.50;;;;;;;0.19;62.37;101597.22;5002086;28;98885;-73
2023/12/03 03:54:30;;;;;;;23.07;10.80;;;;;;;0.16;62.34;101595.34;5002959;28;96949;-72
2023/12/03 03:56:55;;;;;;;23.00;11.60;;;;;;;0.18;62.33;101595.69;5004632;28;97165;-73
2023/12/03 03:59:21;;;;;;;24.40;12.00;;;;;;;0.18;62.58;101600.38;5003024;28;97169;-73
2023/12/03 04:01:46;;;;;;;22.53;11.50;;;;;;;0.18;62.50;101600.38;5001961;28;98343;-73
2023/12/03 04:04:12;;;;;;;20.00;11.20;;;;;;;0.17;62.46;101607.75;5003503;28;97231;-72
2023/12/03 04:06:44;;;;;;;20.17;10.87;;;;;;;0.20;62.53;101625.19;4997665;28;97385;-72
2023/12/03 04:09:10;;;;;;;22.63;11.10;;;;;;;0.19;62.44;101620.97;5004771;28;97113;-73
2023/12/03 04:11:42;;;;;;;21.00;10.93;;;;;;;0.18;62.55;101612.03;5003110;28;100167;-73
2023/12/03 04:14:09;;;;;;;21.33;11.00;;;;;;;0.20;62.61;101617.03;5004955;28;97260;-73
2023/12/03 04:16:35;;;;;;;24.00;11.97;;;;;;;0.21;62.50;101621.31;5002127;28;97370;-73
2023/12/03 04:19:00;;;;;;;20.60;11.40;;;;;;;0.19;62.33;101623.69;5004823;28;99125;-73
2023/12/03 04:21:26;;;;;;;19.67;10.17;;;;;;;0.20;62.60;101620.53;5004825;28;99095;-73
2023/12/03 04:23:51;;;;;;;26.40;11.80;;;;;;;0.21;62.48;101615.84;5006548;28;97421;-73
2023/12/03 04:26:17;;;;;;;25.10;10.87;;;;;;;0.20;62.35;101619.75;5005414;28;98016;-72
2023/12/03 04:28:42;;;;;;;19.67;10.60;;;;;;;0.20;62.61;101619.75;5007457;27;97367;-73
2023/12/03 04:31:25;;;;;;;24.97;11.60;;;;;;;0.21;62.46;101616.59;5008309;28;98655;-72
2023/12/03 04:33:55;;;;;;;21.23;10.00;;;;;;;0.17;62.40;101624.06;5004789;28;97449;-74
2023/12/03 04:36:27;;;;;;;21.23;10.67;;;;;;;0.19;62.42;101631.84;5006109;28;97172;-73
2023/12/03 04:38:53;;;;;;;22.80;11.10;;;;;;;0.19;62.60;101626.41;5005807;28;96829;-73
2023/12/03 04:41:19;;;;;;;23.17;10.77;;;;;;;0.19;62.38;101629.88;5007000;28;98674;-72
2023/12/03 04:43:45;;;;;;;21.93;11.10;;;;;;;0.21;62.68;101622.03;5005601;28;97496;-73
2023/12/03 04:46:11;;;;;;;20.40;10.80;;;;;;;0.20;62.59;101625.19;5006061;28;96847;-73
2023/12/03 04:48:39;;;;;;;21.50;10.87;;;;;;;0.19;62.56;101616.25;5007690;28;97352;-73
2023/12/03 04:51:04;;;;;;;24.77;11.90;;;;;;;0.17;62.23;101624.06;5022738;27;99056;-73
2023/12/03 04:53:29;;;;;;;20.03;11.13;;;;;;;0.20;62.48;101627.91;5005699;28;100201;-73
2023/12/03 04:55:55;;;;;;;22.93;11.47;;;;;;;0.18;62.47;101633.00;5011270;28;100559;-73
2023/12/03 04:58:21;;;;;;;23.50;10.90;;;;;;;0.18;62.40;101627.56;5005306;28;98101;-73
2023/12/03 05:00:46;;;;;;;19.87;10.70;;;;;;;0.17;62.47;101626.03;5005017;28;97272;-73
2023/12/03 05:03:11;;;;;;;22.13;11.43;;;;;;;0.09;62.34;101628.16;5007218;28;96979;-73
2023/12/03 05:05:37;;;;;;;20.97;11.63;;;;;;;0.09;62.32;101621.94;5006843;28;97297;-73
2023/12/03 05:08:02;;;;;;;20.90;10.60;;;;;;;0.10;62.50;101631.63;5005942;28;98591;-73
2023/12/03 05:10:29;;;;;;;18.33;10.17;;;;;;;0.13;62.51;101633.50;5006503;28;96996;-73
2023/12/03 05:12:54;;;;;;;20.90;11.00;;;;;;;0.14;62.65;101640.50;5007266;28;97435;-73
2023/12/03 05:15:20;;;;;;;19.80;10.23;;;;;;;0.15;62.61;101629.19;5009675;28;97696;-73
2023/12/03 05:17:45;;;;;;;21.60;11.30;;;;;;;0.19;62.55;101637.28;5005098;28;98213;-73
2023/12/03 05:20:11;;;;;;;22.67;11.70;;;;;;;0.20;62.47;101642.28;5006277;28;97130;-72
2023/12/03 05:22:36;;;;;;;22.17;11.70;;;;;;;0.20;62.55;101645.00;5002731;28;97240;-73
2023/12/03 05:25:01;;;;;;;20.00;10.70;;;;;;;0.21;62.69;101648.50;5007262;28;97703;-73
2023/12/03 05:27:27;;;;;;;21.90;11.57;;;;;;;0.20;62.62;101642.28;5003500;28;111657;-73
2023/12/03 05:29:52;;;;;;;23.80;12.13;;;;;;;0.21;62.50;101648.50;5005777;28;97175;-73
2023/12/03 05:32:17;;;;;;;21.90;11.40;;;;;;;0.22;62.61;101642.63;5006585;28;97170;-73
2023/12/03 05:34:46;;;;;;;22.80;11.60;;;;;;;0.23;62.65;101651.56;5005569;28;97755;-73
2023/12/03 05:37:12;;;;;;;24.30;12.17;;;;;;;0.23;62.64;101667.91;4995541;28;100521;-73
2023/12/03 05:39:41;;;;;;;24.47;11.33;;;;;;;0.24;62.79;101661.25;5005530;28;97035;-73
2023/12/03 05:42:07;;;;;;;19.23;11.27;;;;;;;0.23;62.36;101665.19;5009427;28;96634;-73
2023/12/03 05:44:33;;;;;;;25.37;12.63;;;;;;;0.20;62.45;101664.06;5012604;27;97391;-74
2023/12/03 05:46:58;;;;;;;23.97;11.40;;;;;;;0.21;62.74;101664.84;5005380;28;96918;-73
2023/12/03 05:49:24;;;;;;;24.53;12.07;;;;;;;0.22;62.59;101661.69;4996209;28;100854;-73
2023/12/03 05:51:49;;;;;;;20.70;10.77;;;;;;;0.18;62.47;101671.88;5006159;28;98453;-74
2023/12/03 05:54:15;;;;;;;21.70;11.33;;;;;;;0.14;62.59;101671.19;5005286;28;96974;-73
2023/12/03 05:56:41;;;;;;;22.37;11.10;;;;;;;0.13;62.74;101675.09;5006321;28;97375;-73
2023/12/03 05:59:06;;;;;;;24.80;12.77;;;;;;;0.12;62.86;101681.72;5006016;28;98441;-72
2023/12/03 06:01:32;;;;;;;21.10;10.80;;;;;;;0.15;62.71;101689.03;5005883;28;96736;-73
2023/12/03 06:03:58;;;;;;;23.80;12.33;;;;;;;0.15;62.95;101699.91;5006144;28;97336;-73
2023/12/03 06:06:23;;;;;;;20.47;10.80;;;;;;;0.19;62.66;101688.97;5008147;28;106006;-73
2023/12/03 06:08:50;;;;;;;21.60;11.17;;;;;;;0.18;62.64;101698.31;5005316;28;97196;-73
2023/12/03 06:11:15;;;;;;;22.03;11.30;;;;;;;0.18;62.66;101701.81;5004451;28;97269;-73
2023/12/03 06:13:40;;;;;;;23.37;11.97;;;;;;;0.18;63.03;101699.09;5004946;28;96795;-72
2023/12/03 06:16:06;;;;;;;23.60;12.47;;;;;;;0.20;62.84;101696.72;5006785;28;103906;-73
2023/12/03 06:18:32;;;;;;;24.40;12.70;;;;;;;0.20;62.41;101706.81;5004942;28;99769;-73
2023/12/03 06:20:57;;;;;;;25.87;12.57;;;;;;;0.21;62.66;101724.72;5005345;28;97145;-74
2023/12/03 06:23:23;;;;;;;23.80;11.63;;;;;;;0.22;62.93;101712.63;5003604;28;96823;-72
2023/12/03 06:25:48;;;;;;;25.13;12.37;;;;;;;0.23;62.72;101717.63;5004793;28;96819;-73
2023/12/03 06:28:14;;;;;;;22.83;11.90;;;;;;;0.16;62.74;101720.50;5006096;28;97741;-73
2023/12/03 06:30:39;;;;;;;19.63;10.60;;;;;;;0.13;62.72;101715.13;5004442;28;97060;-73
2023/12/03 06:33:04;;;;;;;20.93;11.37;;;;;;;0.10;62.56;101722.16;4999720;28;96711;-72
2023/12/03 06:35:30;;;;;;;19.47;10.53;;;;;;;0.06;62.62;101728.88;5002354;28;97991;-73
2023/12/03 06:37:55;;;;;;;21.10;10.70;;;;;;;0.03;62.78;101722.31;5019057;27;104995;-73
2023/12/03 06:40:20;;;;;;;24.50;11.87;;;;;;;0.07;62.64;101724.97;5005460;28;97116;-73
2023/12/03 06:42:46;;;;;;;23.27;11.87;;;;;;;0.06;62.78;101728.88;5002807;27;96937;-73
2023/12/03 06:45:14;;;;;;;22.47;11.33;;;;;;;0.06;62.86;101734.31;5005596;28;98602;-73
2023/12/03 06:47:39;;;;;;;26.60;11.50;;;;;;;0.06;62.66;101728.88;5005090;28;97190;-72
2023/12/03 06:50:05;;;;;;;24.80;12.80;;;;;;;0.04;62.67;101734.72;5005613;28;97026;-73
2023/12/03 06:52:30;;;;;;;21.27;10.43;;;;;;;0.05;62.66;101722.66;5001842;28;97408;-73
2023/12/03 06:54:56;;;;;;;22.57;11.37;;;;;;;0.06;62.87;101734.31;5004681;28;97707;-73
2023/12/03 06:57:21;;;;;;;23.93;11.70;;;;;;;0.06;62.92;101734.31;5005769;28;99760;-73
2023/12/03 06:59:46;;;;;;;23.90;11.37;;;;;;;0.09;63.03;101733.47;5002893;28;96927;-73
2023/12/03 07:02:12;;;;;;;24.40;12.00;;;;;;;0.08;62.87;101737.41;5006187;28;96782;-73
2023/12/03 07:04:37;;;;;;;23.90;12.10;;;;;;;0.09;62.86;101742.41;5003593;28;97639;-72
2023/12/03 07:07:04;;;;;;;24.63;11.90;;;;;;;0.10;62.81;101752.09;5004427;28;97488;-72
2023/12/03 07:09:29;;;;;;;28.27;12.30;;;;;;;0.11;62.92;101752.88;5003528;27;99305;-72
2023/12/03 07:11:54;;;;;;;26.70;11.93;;;;;;;0.09;62.70;101758.75;5004428;28;96700;-73
2023/12/03 07:14:20;;;;;;;25.00;11.53;;;;;;;0.05;62.93;101755.31;5003741;28;97470;-73
2023/12/03 07:16:45;;;;;;;28.73;12.40;;;;;;;0.08;62.94;101770.03;5003777;28;110454;-73
2023/12/03 07:19:11;;;;;;;25.60;12.23;;;;;;;0.08;62.94;101764.59;5003971;28;97079;-73
2023/12/03 07:21:36;;;;;;;30.50;12.40;;;;;;;0.14;62.94;101771.09;5003482;28;97114;-72
2023/12/03 07:24:02;;;;;;;28.00;12.50;;;;;;;0.15;63.07;101778.06;5001175;28;100131;-72
2023/12/03 07:26:27;;;;;;;28.60;12.90;;;;;;;0.16;62.88;101774.16;5005832;28;96716;-72
2023/12/03 07:28:53;;;;;;;33.47;12.30;;;;;;;0.20;63.21;101777.56;5003712;28;97713;-73
2023/12/03 07:31:18;;;;;;;32.07;13.10;;;;;;;0.21;62.83;101779.88;5004053;28;97002;-73
2023/12/03 07:33:43;;;;;;;35.17;13.20;;;;;;;0.22;63.20;101778.69;5001284;28;102315;-73
2023/12/03 07:36:10;;;;;;;31.70;12.20;;;;;;;0.23;62.94;101777.50;5002468;28;97694;-72
2023/12/03 07:38:35;;;;;;;31.87;13.93;;;;;;;0.26;62.92;101778.63;5003930;28;96878;-73
2023/12/03 07:41:01;;;;;;;32.07;12.27;;;;;;;0.26;63.01;101792.22;5005059;28;102715;-73
2023/12/03 07:43:26;;;;;;;33.83;14.60;;;;;;;0.30;62.98;101792.94;5003714;28;98831;-72
2023/12/03 07:45:52;;;;;;;35.93;13.53;;;;;;;0.32;63.08;101787.09;5004241;28;97624;-73
2023/12/03 07:48:17;;;;;;;36.97;14.80;;;;;;;0.32;62.90;101789.81;5002731;28;97178;-73
2023/12/03 07:50:42;;;;;;;30.53;13.50;;;;;;;0.33;63.09;101785.88;5003382;28;96977;-73
2023/12/03 07:53:08;;;;;;;33.97;14.07;;;;;;;0.33;63.09;101781.22;5005426;28;111665;-72
2023/12/03 07:55:33;;;;;;;38.60;13.97;;;;;;;0.34;62.98;101782.78;5007513;28;100358;-72
2023/12/03 07:57:58;;;;;;;38.83;13.60;;;;;;;0.37;63.06;101797.50;5006811;28;100177;-73
2023/12/03 08:00:24;;;;;;;32.93;13.50;;;;;;;0.37;62.71;101789.34;5007103;28;97588;-73
2023/12/03 08:02:50;;;;;;;32.93;13.30;;;;;;;0.41;63.30;101809.84;5008346;28;97411;-73
2023/12/03 08:05:15;;;;;;;40.80;15.50;;;;;;;0.39;63.08;101792.41;5006705;28;97544;-73
2023/12/03 08:07:41;;;;;;;30.23;13.00;;;;;;;0.38;63.13;101799.78;5006548;28;97418;-73
2023/12/03 08:10:07;;;;;;;36.83;15.13;;;;;;;0.40;62.85;101802.09;5005443;28;97029;-72
2023/12/03 08:12:33;;;;;;;34.83;13.57;;;;;;;0.37;62.84;101797.50;5007201;28;97771;-73
2023/12/03 08:14:58;;;;;;;34.03;13.57;;;;;;;0.28;62.75;101798.03;5009135;28;97043;-73
2023/12/03 08:17:23;;;;;;;40.90;14.40;;;;;;;0.24;63.27;101811.72;5005455;28;97201;-72
2023/12/03 08:19:49;;;;;;;34.73;13.70;;;;;;;0.24;63.02;101794.59;5004201;28;97454;-73
2023/12/03 08:22:14;;;;;;;37.57;13.60;;;;;;;0.25;63.25;101794.22;5008557;27;98640;-72
2023/12/03 08:24:39;;;;;;;33.00;12.40;;;;;;;0.30;63.29;101798.38;5004786;28;98280;-73
2023/12/03 08:27:05;;;;;;;37.27;14.80;;;;;;;0.37;63.13;101805.66;5005201;28;97130;-73
2023/12/03 08:29:30;;;;;;;34.20;14.40;;;;;;;0.38;63.08;101823.53;5006905;28;99263;-73
2023/12/03 08:31:55;;;;;;;33.23;13.87;;;;;;;0.38;63.15;101807.97;5004253;28;103923;-72
2023/12/03 08:34:21;;;;;;;38.57;15.00;;;;;;;0.41;63.19;101806.38;5004846;28;98401;-73
2023/12/03 08:36:46;;;;;;;30.77;12.67;;;;;;;0.46;63.29;101812.06;5005212;28;97463;-74
2023/12/03 08:39:12;;;;;;;27.77;12.77;;;;;;;0.47;63.25;101824.50;5007137;27;97230;-73
2023/12/03 08:41:37;;;;;;;34.27;15.10;;;;;;;0.49;63.02;101833.03;5005394;28;98053;-73
2023/12/03 08:44:06;;;;;;;30.40;13.27;;;;;;;0.51;63.29;101819.00;5005090;28;100370;-73
2023/12/03 08:46:31;;;;;;;36.87;14.40;;;;;;;0.44;62.83;101830.00;5005774;28;97146;-73
2023/12/03 08:48:57;;;;;;;38.07;13.90;;;;;;;0.41;63.01;101817.25;5004021;28;97578;-73
2023/12/03 08:51:22;;;;;;;33.37;14.37;;;;;;;0.34;63.10;101831.75;5006044;28;97164;-73
2023/12/03 08:53:48;;;;;;;39.40;14.97;;;;;;;0.28;63.15;101822.53;5003729;28;100378;-73
2023/12/03 08:56:13;;;;;;;32.43;13.10;;;;;;;0.32;63.32;101828.69;5005993;28;96871;-73
2023/12/03 08:58:40;;;;;;;30.80;12.20;;;;;;;0.41;63.60;101831.59;5006769;28;97151;-72
2023/12/03 09:01:07;;;;;;;33.80;13.00;;;;;;;0.51;63.50;101838.81;5005205;28;98910;-73
2023/12/03 09:03:33;;;;;;;32.83;15.00;;;;;;;0.60;63.67;101844.50;5004154;28;97247;-73
2023/12/03 09:05:58;;;;;;;28.10;13.57;;;;;;;0.68;63.40;101840.44;5005962;28;97369;-73
2023/12/03 09:08:24;;;;;;;32.37;13.80;;;;;;;0.71;63.02;101845.06;5006761;28;96963;-73
2023/12/03 09:10:49;;;;;;;29.30;13.83;;;;;;;0.69;63.21;101846.66;4996722;28;99336;-73
2023/12/03 09:13:14;;;;;;;36.47;13.57;;;;;;;0.73;63.46;101859.03;5003183;28;99393;-73
2023/12/03 09:15:40;;;;;;;29.77;12.77;;;;;;;0.78;63.24;101872.13;5004646;28;97159;-73
2023/12/03 09:18:05;;;;;;;29.90;12.70;;;;;;;0.79;63.09;101859.28;5006623;28;98222;-72
2023/12/03 09:20:30;;;;;;;30.80;13.40;;;;;;;0.84;63.38;101873.19;5004608;28;97523;-73
2023/12/03 09:22:56;;;;;;;29.10;13.10;;;;;;;0.83;62.92;101870.88;5005695;28;97390;-73
2023/12/03 09:25:21;;;;;;;26.93;13.70;;;;;;;0.85;63.13;101877.44;5007384;28;97705;-73
2023/12/03 09:27:47;;;;;;;32.93;14.13;;;;;;;0.90;63.32;101873.47;5003290;28;97337;-73
2023/12/03 09:30:12;;;;;;;32.00;14.40;;;;;;;0.93;63.01;101883.53;5004319;28;96758;-73
2023/12/03 09:32:38;;;;;;;38.33;14.33;;;;;;;0.94;63.32;101891.28;5004658;28;97399;-73
2023/12/03 09:35:04;;;;;;;29.83;14.13;;;;;;;0.94;63.25;101879.59;5004668;28;97183;-72
2023/12/03 09:37:29;;;;;;;30.63;13.47;;;;;;;0.99;63.16;101881.84;5005627;28;99947;-72
2023/12/03 09:39:55;;;;;;;31.37;14.00;;;;;;;1.04;63.29;101895.00;5007387;28;101353;-73
2023/12/03 09:42:25;;;;;;;28.20;13.20;;;;;;;1.11;63.26;101894.81;5003902;28;99286;-73
2023/12/03 09:45:01;;;;;;;34.83;14.20;;;;;;;1.17;63.08;101887.72;5003329;28;97598;-73
2023/12/03 09:47:27;;;;;;;33.67;14.70;;;;;;;1.22;63.21;101898.09;5006040;28;96874;-73
2023/12/03 09:49:55;;;;;;;30.40;14.10;;;;;;;1.29;63.09;101892.50;5004040;28;97761;-73
2023/12/03 09:52:24;;;;;;;28.93;13.30;;;;;;;1.35;62.90;101900.97;5005296;28;97424;-73
2023/12/03 09:54:51;;;;;;;33.80;15.13;;;;;;;1.39;62.90;101901.66;5003373;28;98536;-72
2023/12/03 09:57:18;;;;;;;38.63;15.87;;;;;;;1.42;62.91;101889.91;5003906;28;97296;-72
2023/12/03 09:59:48;;;;;;;35.10;15.47;;;;;;;1.46;62.94;101896.03;4999666;28;99595;-73
2023/12/03 10:02:14;;;;;;;40.20;16.33;;;;;;;1.47;63.00;101900.31;5004686;28;97734;-72
2023/12/03 10:04:40;;;;;;;33.20;14.97;;;;;;;1.50;62.97;101902.19;5002387;28;97437;-73
2023/12/03 10:07:07;;;;;;;32.17;15.57;;;;;;;1.54;62.80;101897.44;5006610;28;97022;-73
2023/12/03 10:09:32;;;;;;;45.77;16.80;;;;;;;1.56;62.97;101889.59;5004683;28;97331;-73
2023/12/03 10:12:04;;;;;;;34.83;15.57;;;;;;;1.61;63.08;101910.91;5004439;28;97610;-72
2023/12/03 10:14:29;;;;;;;37.00;15.80;;;;;;;1.61;62.76;101911.66;5004286;28;96850;-73
2023/12/03 10:16:55;;;;;;;45.33;16.73;;;;;;;1.62;62.93;101896.84;5005660;28;97413;-73
2023/12/03 10:19:24;;;;;;;36.30;16.33;;;;;;;1.67;62.93;101901.03;5002648;28;100084;-73
2023/12/03 10:21:51;;;;;;;39.50;17.00;;;;;;;1.70;62.98;101894.72;5009632;27;98479;-73
2023/12/03 10:24:16;;;;;;;36.83;15.27;;;;;;;1.73;63.06;101891.91;5004768;28;97195;-73
2023/12/03 10:26:53;;;;;;;41.37;16.23;;;;;;;1.78;63.04;101904.28;5004069;28;97586;-72
2023/12/03 10:29:26;;;;;;;38.63;16.47;;;;;;;1.78;63.20;101898.84;5006180;28;97764;-73
2023/12/03 10:31:53;;;;;;;41.07;16.60;;;;;;;1.79;63.16;101906.59;5005472;28;99534;-74
2023/12/03 10:34:21;;;;;;;32.77;16.27;;;;;;;1.80;63.02;101899.94;5006483;28;96676;-73
2023/12/03 10:36:47;;;;;;;33.17;15.20;;;;;;;1.87;62.91;101917.34;5008549;28;97057;-73
2023/12/03 10:39:17;;;;;;;43.27;15.47;;;;;;;1.90;63.12;101917.25;5004168;28;100361;-72
2023/12/03 10:41:46;;;;;;;33.87;15.83;;;;;;;1.94;62.78;101909.00;5004550;28;97033;-72
2023/12/03 10:44:24;;;;;;;39.57;16.47;;;;;;;1.92;62.80;101905.94;5004544;28;98244;-73
2023/12/03 10:46:50;;;;;;;38.23;17.13;;;;;;;1.91;62.89;101902.41;5003940;28;97574;-73
2023/12/03 10:49:16;;;;;;;40.80;17.07;;;;;;;1.91;62.87;101902.41;5004783;28;96936;-73
2023/12/03 10:51:42;;;;;;;41.00;16.50;;;;;;;1.92;62.78;101912.13;5001641;28;100071;-74
2023/12/03 10:54:08;;;;;;;41.07;18.13;;;;;;;1.93;62.91;101910.94;5005707;28;97017;-73
2023/12/03 10:56:34;;;;;;;34.57;16.20;;;;;;;1.93;62.80;101916.41;5005493;28;99913;-72
2023/12/03 10:59:07;;;;;;;39.90;17.50;;;;;;;1.98;63.04;101913.19;5005110;28;97685;-73
2023/12/03 11:01:37;;;;;;;43.33;17.43;;;;;;;2.02;62.71;101915.81;5015380;27;100537;-73
2023/12/03 11:04:06;;;;;;;45.57;18.03;;;;;;;2.05;62.64;101909.50;5004171;28;97139;-72
2023/12/03 11:06:34;;;;;;;39.50;17.80;;;;;;;2.01;62.71;101931.41;5003855;28;97087;-73
2023/12/03 11:09:00;;;;;;;41.37;17.80;;;;;;;2.03;62.90;101920.84;5003459;28;99347;-73
2023/12/03 11:11:26;;;;;;;40.07;18.80;;;;;;;2.04;62.93;101910.69;5003082;28;99205;-73